Airport Name : Baton Rouge Metro Ryan Fld

Other Name : Baton Rouge

ICAO : KBTR

IATA : BTR

FAA : BTR

Latitude : 30.533167

Longitude : -91.149639

Country : United States

Local Date and Time : 16 Jun 2024 20:36

 

TAF (Terminal Aerodrome Forecast)

KBTR 162332Z 1700/1724 14007KT P6SM VCSH SCT025 BKN100 FM171200 11007KT P6SM -SHRA VCTS SCT020CB BKN035 FM171800 11012G20KT 4SM SHRA VCTS SCT025CB BKN030

 

METAR (METeorological Aerodrome Report)

KBTR 170053Z 11006KT 10SM FEW110 26/23 A2993 RMK AO2 RAB12E33 SLP135 P0000 T02610233

KBTR 162353Z 11004KT 10SM CLR 26/23 A2991 RMK AO2 TSE2256 SLP129 60029 T02610233 10328 20239 58001

KBTR 162302Z 08007KT 10SM CLR 27/24 A2991 RMK AO2 TSE2256 T02670239

KBTR 162253Z 08006KT 10SM TS CLR 27/24 A2990 RMK AO2 SLP126 T02670239

KBTR 162153Z 06003KT 10SM TS CLR 26/23 A2993 RMK AO2 SLP135 T02560233